Accueil
METAR-TAF:

METAR-TAF

Aéroports :

Aéroport international de Coimbatore

Coimbatore, Inde

latitude: 11-01-36N, longitude: 077-02-30E, altitude: 400 m

Observation

Le bulletin a été fait il y a 17 minutes, à 23:30 UTC
Vent 4 kt de nord/nord-est
Température 24°C
Humidité 69%
Pression 1014 hPa
Visibilité: 5000 m
brume sèche

METAR: VOCB 262330Z 03004KT 5000 HZ NSC 24/18 Q1014 NOSIG

Heure: 05:17 (23:47 UTC)

Prévision

Le bulletin a été fait il y a 12 heures et 47 minutes, à 11:00 UTC
Prévision valable du 26 à 12 UTC au 27 à 18 UTC
Vent 5 kt de nord-est
Visibilité: 5000 m
Quelques nuages à une hauteur de 1500 ft
brume sèche

TAF: VOCB 261100Z 2612/2718 05005KT 5000 HZ FEW015

Observations et prévisions météorologiques de plus de 4000 aéroports (messages METAR et TAF).

Les stations disponibles sont représentées par des disques jaunes et rouges sur la carte.

Passer la souris dessus pour voir le nom de la station.

Cliquer dessus pour voir les observations et prévisions météorologiques.

Pour changer de carte: cliquez sur les boutons verts avec une croix noire pour zoomer, sur le bouton vert avec un tiret pour effectuer un zoom arrière, ou sur les flèches vertes pour les cartes adjacentes.


METAR-TAF: